Main page
METAR-TAF:

METAR-TAF

Airports :

Masjed Soleyman, Iran

latitude: 31-59N, longitude: 049-16E, elevation: 372 m

Current weather observation

The report was made 1 hour and 30 minutes ago, at 15:50 UTC
Wind 4 kt from the West
Temperature 38°C
Humidity 4%
Pressure 1002 hPa
Visibility 10 km or more
no clouds below 1500 m and no cumulonimbus

METAR: OIAI 231550Z 26004KT CAVOK 38/M12 Q1002

Time: 21:50 (17:20 UTC)


TAF: missing

Weather observations and forecasts of more than 4000 airports (METAR and TAF reports).

The available stations are represented by yellow and red dots on the map.

Hover mouse over dot to see the name of the station.

Then click to see weather observations and forecasts.

To change the map : click on the green buttons with a black cross to zoom in, on the green button with a dash to zoom out, or on the green arrows for adjacent maps.


METAR-TAF: